Meiyo — JNQN — position and weather

sailwx.info

Track history (hours):
 
Tides and Currents Weather Stations Pressure Air Temp Water Temp Dewpoint Dewpoint Depression Visibility Wind Speed Wind Dir Waves Ship Positions

Oceanographic research ship Meiyo (Japan)

Detailed information on ship capabilities available from University of Delaware's Ocean Information Center.

Last reported at 2018-Feb-25 04:15 UTC. Time now 2018-Feb-25 06:15 UTC.
Position N 35°38' E 139°47'.

Length 60 m; draft 3.5 m.

Type: Other ship. MMSI: 431100381.

Date/timePositionNaut miles runAvg speedWind from/ knotsBaromVisibWave heightAir tempDewpointWater temp
2018-Feb-25 04:15N 35°38' E 139°47'0 0.5
2018-Feb-25 03:59N 35°38' E 139°47'3 6.5
2018-Feb-25 03:31N 35°35' E 139°48'5 8.8
2018-Feb-25 02:58N 35°33' E 139°52'4 7.9
2018-Feb-25 02:30N 35°29' E 139°52'510.9
2018-Feb-25 02:00N 35°25' E 139°47'611.4
2018-Feb-25 01:31N 35°20' E 139°44'611.2
2018-Feb-25 01:00N 35°14' E 139°47'611.3
2018-Feb-25 00:31N 35°09' E 139°45'611.2
2018-Feb-25 00:00N 35°04' E 139°42'510.6
2018-Feb-24 23:30N 35°01' E 139°37'611.4
2018-Feb-24 23:00N 34°57' E 139°31'911.5
2018-Feb-24 22:15N 34°52' E 139°23'411.3
2018-Feb-24 21:52N 34°49' E 139°19'512.7
2018-Feb-24 21:29N 34°46' E 139°15'612.7
2018-Feb-24 20:59N 34°41' E 139°10'612.3
2018-Feb-24 20:28N 34°35' E 139°06'612.1
2018-Feb-24 20:00N 34°32' E 139°01'612.4
2018-Feb-24 19:30N 34°29' E 138°54'2113.1
2018-Feb-24 17:53N 34°24' E 138°29'  
2018-Feb-16 04:34N 32°26' E 132°31'110.7
2018-Feb-16 04:30N 32°26' E 132°32'41 3.6
2018-Feb-15 17:15N 32°36' E 133°19'  
Track history (hours):
 
Tides and Currents Weather Stations Pressure Air Temp Water Temp Dewpoint Dewpoint Depression Visibility Wind Speed Wind Dir Waves Ship Positions

Oceanographic research ship Meiyo (Japan)

Detailed information on ship capabilities available from University of Delaware's Ocean Information Center.

Last reported at 2018-Feb-25 04:15 UTC. Time now 2018-Feb-25 06:15 UTC.
Position N 35°38' E 139°47'.

Length 60 m; draft 3.5 m.

Type: Other ship. MMSI: 431100381.

Date/timePositionNaut miles runAvg speedWind from/ knotsBaromVisibWave heightAir tempDewpointWater temp
2018-Feb-25 04:15N 35°38' E 139°47'0 0.5
2018-Feb-25 03:59N 35°38' E 139°47'3 6.5
2018-Feb-25 03:31N 35°35' E 139°48'5 8.8
2018-Feb-25 02:58N 35°33' E 139°52'4 7.9
2018-Feb-25 02:30N 35°29' E 139°52'510.9
2018-Feb-25 02:00N 35°25' E 139°47'611.4
2018-Feb-25 01:31N 35°20' E 139°44'611.2
2018-Feb-25 01:00N 35°14' E 139°47'611.3
2018-Feb-25 00:31N 35°09' E 139°45'611.2
2018-Feb-25 00:00N 35°04' E 139°42'510.6
2018-Feb-24 23:30N 35°01' E 139°37'611.4
2018-Feb-24 23:00N 34°57' E 139°31'911.5
2018-Feb-24 22:15N 34°52' E 139°23'411.3
2018-Feb-24 21:52N 34°49' E 139°19'512.7
2018-Feb-24 21:29N 34°46' E 139°15'612.7
2018-Feb-24 20:59N 34°41' E 139°10'612.3
2018-Feb-24 20:28N 34°35' E 139°06'612.1
2018-Feb-24 20:00N 34°32' E 139°01'612.4
2018-Feb-24 19:30N 34°29' E 138°54'2113.1
2018-Feb-24 17:53N 34°24' E 138°29'  
2018-Feb-16 04:34N 32°26' E 132°31'110.7
2018-Feb-16 04:30N 32°26' E 132°32'41 3.6
2018-Feb-15 17:15N 32°36' E 133°19'  

Dump ship's entire track history